Time;durP1;ratioP1;P1;durP2;ratioP2;P2;SDS_P1;SDS_P2;PMS_P1;PMS_P2;Temp;Humidity;BMP_temperature;BMP_pressure;BME280_temperature;BME280_humidity;BME280_pressure;Samples;Min_cycle;Max_cycle;Signal;HPM_P1;HPM_P2
2022/05/19 00:02:19;;;;;;;3.50;3.13;;;;;;;;;;5042990;28;20230;-72
2022/05/19 00:04:44;;;;;;;3.50;3.20;;;;;;;;;;5038417;28;20224;-72
2022/05/19 00:07:10;;;;;;;3.60;3.30;;;;;;;;;;5046026;28;20180;-72
2022/05/19 00:09:35;;;;;;;3.60;3.30;;;;;;;;;;5060619;28;20171;-71
2022/05/19 00:12:03;;;;;;;4.97;3.17;;;;;;;;;;5044278;28;20184;-73
2022/05/19 00:14:28;;;;;;;3.00;2.70;;;;;;;;;;5047727;28;20198;-72
2022/05/19 00:16:56;;;;;;;3.47;3.17;;;;;;;;;;5042805;28;20186;-72
2022/05/19 00:19:21;;;;;;;3.40;3.10;;;;;;;;;;5042463;28;20179;-72
2022/05/19 00:21:47;;;;;;;4.00;3.40;;;;;;;;;;5048117;28;20186;-72
2022/05/19 00:24:12;;;;;;;3.23;3.03;;;;;;;;;;5046384;28;20184;-72
2022/05/19 00:26:37;;;;;;;3.23;2.93;;;;;;;;;;5047757;28;20188;-73
2022/05/19 00:29:03;;;;;;;3.37;3.00;;;;;;;;;;5039578;28;20282;-72
2022/05/19 00:31:29;;;;;;;3.43;3.00;;;;;;;;;;5047019;28;20216;-72
2022/05/19 00:33:55;;;;;;;3.70;2.97;;;;;;;;;;5046730;28;20221;-72
2022/05/19 00:36:20;;;;;;;3.27;3.00;;;;;;;;;;5046877;28;20186;-72
2022/05/19 00:38:46;;;;;;;5.13;3.57;;;;;;;;;;5043107;28;20206;-72
2022/05/19 00:41:12;;;;;;;3.60;3.10;;;;;;;;;;5044835;28;20186;-72
2022/05/19 00:43:40;;;;;;;3.33;3.07;;;;;;;;;;5041243;28;20177;-73
2022/05/19 00:46:41;;;;;;;3.53;2.93;;;;;;;;;;5044074;28;20199;-72
2022/05/19 00:49:25;;;;;;;4.13;3.13;;;;;;;;;;5010507;28;20232;-73
2022/05/19 00:51:56;;;;;;;4.27;3.20;;;;;;;;;;5001718;28;20197;-73
2022/05/19 00:54:24;;;;;;;4.60;3.10;;;;;;;;;;5024923;28;20188;-73
2022/05/19 00:56:55;;;;;;;3.27;2.77;;;;;;;;;;5022137;28;20219;-72
2022/05/19 00:59:26;;;;;;;3.00;2.70;;;;;;;;;;5012226;28;20225;-72
2022/05/19 01:01:52;;;;;;;5.07;3.00;;;;;;;;;;5020293;28;20223;-72
2022/05/19 01:04:35;;;;;;;2.83;2.63;;;;;;;;;;5022201;28;20239;-72
2022/05/19 01:07:04;;;;;;;4.27;2.90;;;;;;;;;;5007520;28;20186;-72
2022/05/19 01:09:34;;;;;;;5.57;2.93;;;;;;;;;;5010586;28;20214;-72
2022/05/19 01:12:00;;;;;;;3.70;3.00;;;;;;;;;;4999817;28;20321;-72
2022/05/19 01:14:25;;;;;;;4.03;2.70;;;;;;;;;;5024987;28;20178;-72
2022/05/19 01:16:50;;;;;;;5.60;3.13;;;;;;;;;;5022624;28;20186;-72
2022/05/19 01:19:22;;;;;;;3.30;3.00;;;;;;;;;;5011619;28;20235;-72
2022/05/19 01:21:50;;;;;;;3.00;2.80;;;;;;;;;;5030105;28;20188;-73
2022/05/19 01:24:20;;;;;;;3.70;3.10;;;;;;;;;;5048741;28;20207;-72
2022/05/19 01:26:47;;;;;;;4.83;3.00;;;;;;;;;;5044598;28;20183;-72
2022/05/19 01:29:14;;;;;;;2.73;2.53;;;;;;;;;;5051792;28;20209;-72
2022/05/19 01:31:47;;;;;;;3.50;3.20;;;;;;;;;;5051631;28;20181;-73
2022/05/19 01:34:13;;;;;;;3.20;2.90;;;;;;;;;;5045504;28;20203;-72
2022/05/19 01:36:38;;;;;;;4.30;2.77;;;;;;;;;;5049171;28;20181;-72
2022/05/19 01:39:06;;;;;;;15.77;4.50;;;;;;;;;;5044317;28;20451;-72
2022/05/19 01:41:43;;;;;;;6.80;3.37;;;;;;;;;;5047715;28;20186;-72
2022/05/19 01:44:09;;;;;;;2.97;2.70;;;;;;;;;;5051416;28;20190;-73
2022/05/19 01:46:36;;;;;;;2.80;2.60;;;;;;;;;;5047138;28;20187;-72
2022/05/19 01:49:07;;;;;;;3.30;3.00;;;;;;;;;;5046791;28;20263;-73
2022/05/19 01:51:39;;;;;;;3.07;2.77;;;;;;;;;;5040821;28;20176;-72
2022/05/19 01:54:09;;;;;;;4.00;2.70;;;;;;;;;;5047737;28;20322;-73
2022/05/19 01:56:38;;;;;;;6.23;3.00;;;;;;;;;;5046006;28;20197;-72
2022/05/19 01:59:09;;;;;;;4.70;3.10;;;;;;;;;;5049085;28;20263;-72
2022/05/19 02:01:35;;;;;;;2.70;2.50;;;;;;;;;;5050039;28;20188;-72
2022/05/19 02:04:09;;;;;;;5.70;2.93;;;;;;;;;;5044567;28;20189;-72
2022/05/19 02:06:40;;;;;;;2.73;2.50;;;;;;;;;;5046737;28;20187;-72
2022/05/19 02:09:15;;;;;;;4.73;2.80;;;;;;;;;;5050450;28;20199;-72
2022/05/19 02:11:50;;;;;;;3.47;3.07;;;;;;;;;;5048664;28;20191;-73
2022/05/19 02:14:17;;;;;;;3.37;2.70;;;;;;;;;;5049963;28;20188;-73
2022/05/19 02:16:43;;;;;;;3.23;2.97;;;;;;;;;;5047278;28;20177;-73
2022/05/19 02:19:10;;;;;;;2.70;2.47;;;;;;;;;;5046911;28;20182;-73
2022/05/19 02:21:36;;;;;;;3.00;2.80;;;;;;;;;;5043855;28;20216;-72
2022/05/19 02:24:01;;;;;;;4.23;2.73;;;;;;;;;;5049650;28;20188;-72
2022/05/19 02:26:31;;;;;;;3.33;2.80;;;;;;;;;;5048969;28;20174;-73
2022/05/19 02:28:58;;;;;;;3.70;2.80;;;;;;;;;;5050884;28;20203;-72
2022/05/19 02:31:25;;;;;;;2.70;2.50;;;;;;;;;;5048920;28;20269;-72
2022/05/19 02:33:50;;;;;;;3.00;2.80;;;;;;;;;;5049495;28;20288;-72
2022/05/19 02:36:15;;;;;;;3.73;3.10;;;;;;;;;;5046751;28;20268;-72
2022/05/19 02:38:40;;;;;;;3.00;2.70;;;;;;;;;;5050941;28;20180;-72
2022/05/19 02:41:06;;;;;;;3.93;2.93;;;;;;;;;;5047225;28;20187;-72
2022/05/19 02:43:31;;;;;;;2.83;2.53;;;;;;;;;;5050088;28;20188;-72
2022/05/19 02:45:56;;;;;;;3.53;2.50;;;;;;;;;;5048423;28;20253;-72
2022/05/19 02:48:21;;;;;;;3.03;2.60;;;;;;;;;;5046887;28;20229;-72
2022/05/19 02:50:47;;;;;;;3.63;2.43;;;;;;;;;;5051260;28;20176;-73
2022/05/19 02:53:13;;;;;;;2.93;2.73;;;;;;;;;;5048013;28;20207;-73
2022/05/19 02:55:39;;;;;;;3.30;2.67;;;;;;;;;;5047488;28;20176;-72
2022/05/19 02:58:05;;;;;;;3.07;2.70;;;;;;;;;;5047152;28;20182;-73
2022/05/19 03:00:30;;;;;;;3.33;2.47;;;;;;;;;;5047446;28;20264;-73
2022/05/19 03:02:57;;;;;;;2.70;2.50;;;;;;;;;;5049009;28;20177;-72
2022/05/19 03:05:23;;;;;;;2.70;2.50;;;;;;;;;;5049309;28;20201;-73
2022/05/19 03:07:49;;;;;;;4.83;2.50;;;;;;;;;;5044896;28;20247;-72
2022/05/19 03:10:14;;;;;;;3.00;2.50;;;;;;;;;;5048658;28;20208;-72
2022/05/19 03:12:40;;;;;;;3.83;2.97;;;;;;;;;;5045028;28;20177;-73
2022/05/19 03:15:06;;;;;;;4.50;2.37;;;;;;;;;;5048187;28;20212;-72
2022/05/19 03:17:31;;;;;;;3.50;2.63;;;;;;;;;;5049037;28;20180;-73
2022/05/19 03:19:57;;;;;;;4.07;2.53;;;;;;;;;;5046903;28;20190;-73
2022/05/19 03:22:24;;;;;;;2.87;2.57;;;;;;;;;;5047766;28;20181;-72
2022/05/19 03:24:50;;;;;;;2.40;2.20;;;;;;;;;;5046572;28;20185;-73
2022/05/19 03:27:15;;;;;;;3.57;2.40;;;;;;;;;;5046555;28;20180;-73
2022/05/19 03:29:41;;;;;;;3.30;2.30;;;;;;;;;;5045148;28;20176;-72
2022/05/19 03:32:06;;;;;;;2.50;2.27;;;;;;;;;;5047836;28;20290;-72
2022/05/19 03:34:32;;;;;;;2.40;2.20;;;;;;;;;;5049247;28;20176;-73
2022/05/19 03:36:57;;;;;;;3.27;2.73;;;;;;;;;;5049002;28;20177;-73
2022/05/19 03:39:22;;;;;;;2.60;2.40;;;;;;;;;;5040549;28;20271;-72
2022/05/19 03:41:47;;;;;;;3.00;2.00;;;;;;;;;;5047305;28;20181;-73
2022/05/19 03:44:13;;;;;;;4.30;2.20;;;;;;;;;;5042200;28;20363;-73
2022/05/19 03:46:38;;;;;;;2.37;1.90;;;;;;;;;;5048795;28;20183;-72
2022/05/19 03:49:03;;;;;;;3.40;2.30;;;;;;;;;;5037560;28;20254;-73
2022/05/19 03:51:29;;;;;;;2.40;2.20;;;;;;;;;;5042126;28;20270;-73
2022/05/19 03:53:55;;;;;;;2.23;2.13;;;;;;;;;;5047011;28;20261;-72
2022/05/19 03:56:21;;;;;;;4.07;2.37;;;;;;;;;;5048970;28;20266;-73
2022/05/19 03:58:48;;;;;;;3.50;2.17;;;;;;;;;;5046164;28;20220;-73
2022/05/19 04:01:13;;;;;;;2.10;1.90;;;;;;;;;;5048809;28;20210;-72
2022/05/19 04:03:39;;;;;;;2.60;2.27;;;;;;;;;;5047709;28;20212;-73
2022/05/19 04:06:04;;;;;;;2.50;2.13;;;;;;;;;;5043585;28;20205;-73
2022/05/19 04:08:30;;;;;;;2.57;2.17;;;;;;;;;;5053800;28;20228;-72
2022/05/19 04:10:56;;;;;;;2.40;2.13;;;;;;;;;;5041575;28;20260;-73
2022/05/19 04:13:21;;;;;;;3.07;1.87;;;;;;;;;;5047592;28;20179;-73
2022/05/19 04:15:46;;;;;;;8.03;2.67;;;;;;;;;;5042738;28;20254;-72
2022/05/19 04:18:11;;;;;;;2.20;2.00;;;;;;;;;;5045519;28;20207;-72
2022/05/19 04:20:39;;;;;;;3.70;2.07;;;;;;;;;;5045972;28;20231;-73
2022/05/19 04:23:04;;;;;;;2.63;1.97;;;;;;;;;;5045850;28;20190;-74
2022/05/19 04:25:29;;;;;;;2.10;1.90;;;;;;;;;;5042224;28;20371;-73
2022/05/19 04:27:55;;;;;;;2.23;1.73;;;;;;;;;;5044485;28;20293;-73
2022/05/19 04:30:21;;;;;;;2.33;2.07;;;;;;;;;;5043920;28;20183;-73
2022/05/19 04:32:47;;;;;;;2.47;1.97;;;;;;;;;;5047859;28;20195;-73
2022/05/19 04:35:13;;;;;;;2.10;1.90;;;;;;;;;;5046268;28;20195;-72
2022/05/19 04:37:38;;;;;;;3.90;2.80;;;;;;;;;;5044895;28;20286;-73
2022/05/19 04:40:04;;;;;;;2.13;1.93;;;;;;;;;;5049857;28;20190;-72
2022/05/19 04:42:29;;;;;;;2.17;2.03;;;;;;;;;;5049771;28;20191;-72
2022/05/19 04:44:55;;;;;;;2.20;2.10;;;;;;;;;;5049953;28;20269;-73
2022/05/19 04:47:20;;;;;;;2.27;2.03;;;;;;;;;;5046600;28;20312;-73
2022/05/19 04:49:45;;;;;;;1.90;1.80;;;;;;;;;;5047690;28;20177;-72
2022/05/19 04:52:11;;;;;;;2.37;2.17;;;;;;;;;;5048041;28;20174;-76
2022/05/19 04:54:37;;;;;;;3.90;2.00;;;;;;;;;;5050796;28;20178;-72
2022/05/19 04:57:02;;;;;;;4.30;2.30;;;;;;;;;;5051267;28;20342;-72
2022/05/19 04:59:27;;;;;;;2.03;1.90;;;;;;;;;;5051680;28;20164;-72
2022/05/19 05:01:52;;;;;;;2.33;1.60;;;;;;;;;;5050780;28;20178;-72
2022/05/19 05:04:19;;;;;;;4.40;2.13;;;;;;;;;;5052543;28;20187;-73
2022/05/19 05:06:44;;;;;;;3.07;2.00;;;;;;;;;;5052176;28;20171;-73
2022/05/19 05:09:09;;;;;;;2.40;2.20;;;;;;;;;;5051009;28;20209;-71
2022/05/19 05:11:35;;;;;;;2.80;2.23;;;;;;;;;;5048809;28;20181;-72
2022/05/19 05:14:00;;;;;;;2.10;2.00;;;;;;;;;;5046646;28;20180;-73
2022/05/19 05:16:25;;;;;;;2.70;1.90;;;;;;;;;;5046542;28;20189;-72
2022/05/19 05:18:50;;;;;;;3.77;2.27;;;;;;;;;;5045817;28;20167;-73
2022/05/19 05:21:16;;;;;;;3.10;1.80;;;;;;;;;;5045535;28;20180;-72
2022/05/19 05:23:41;;;;;;;3.10;2.20;;;;;;;;;;5051192;28;20193;-72
2022/05/19 05:26:07;;;;;;;2.27;2.13;;;;;;;;;;5047053;28;20212;-73
2022/05/19 05:28:33;;;;;;;2.40;2.20;;;;;;;;;;5038041;28;20194;-73
2022/05/19 05:30:59;;;;;;;2.33;2.10;;;;;;;;;;5044233;28;20181;-73
2022/05/19 05:33:24;;;;;;;4.13;2.03;;;;;;;;;;5046514;28;20263;-72
2022/05/19 05:35:49;;;;;;;3.47;2.20;;;;;;;;;;5047007;28;20170;-73
2022/05/19 05:38:15;;;;;;;1.93;1.77;;;;;;;;;;5046067;28;20186;-73
2022/05/19 05:40:40;;;;;;;2.33;2.13;;;;;;;;;;5051445;28;20183;-73
2022/05/19 05:43:06;;;;;;;1.90;1.80;;;;;;;;;;5047785;28;20271;-72
2022/05/19 05:45:31;;;;;;;3.00;2.50;;;;;;;;;;5043120;28;20176;-73
2022/05/19 05:47:56;;;;;;;1.97;1.87;;;;;;;;;;5046581;28;20251;-73
2022/05/19 05:50:22;;;;;;;2.30;2.10;;;;;;;;;;5045644;28;20208;-73
2022/05/19 05:52:47;;;;;;;3.70;2.43;;;;;;;;;;5050759;28;20181;-72
2022/05/19 05:55:13;;;;;;;5.00;2.40;;;;;;;;;;5044839;28;20186;-72
2022/05/19 05:57:38;;;;;;;3.97;3.13;;;;;;;;;;5048682;28;20438;-73
2022/05/19 06:00:04;;;;;;;2.20;2.00;;;;;;;;;;5048610;28;20227;-72
2022/05/19 06:02:29;;;;;;;2.40;2.20;;;;;;;;;;5045961;28;20189;-73
2022/05/19 06:04:55;;;;;;;3.27;2.30;;;;;;;;;;5043895;28;20187;-72
2022/05/19 06:07:20;;;;;;;2.60;2.20;;;;;;;;;;5048095;28;20220;-72
2022/05/19 06:09:45;;;;;;;2.57;2.37;;;;;;;;;;5043715;28;20203;-72
2022/05/19 06:12:11;;;;;;;2.47;2.27;;;;;;;;;;5045791;28;20182;-74
2022/05/19 06:14:36;;;;;;;2.47;2.27;;;;;;;;;;5042187;28;20200;-73
2022/05/19 06:17:01;;;;;;;3.03;2.20;;;;;;;;;;5046408;28;20212;-73
2022/05/19 06:19:26;;;;;;;2.33;2.23;;;;;;;;;;5043971;28;20188;-72
2022/05/19 06:21:52;;;;;;;2.40;2.20;;;;;;;;;;5049344;28;20196;-72
2022/05/19 06:24:17;;;;;;;3.23;2.37;;;;;;;;;;5046348;28;20175;-72
2022/05/19 06:26:42;;;;;;;2.50;2.30;;;;;;;;;;5042789;28;20191;-73
2022/05/19 06:29:08;;;;;;;2.80;2.60;;;;;;;;;;5044367;28;20214;-73
2022/05/19 06:31:33;;;;;;;3.80;2.10;;;;;;;;;;5047789;28;20262;-73
2022/05/19 06:33:59;;;;;;;3.00;2.17;;;;;;;;;;5050240;28;20196;-73
2022/05/19 06:36:25;;;;;;;4.23;2.40;;;;;;;;;;5047273;28;20333;-73
2022/05/19 06:38:50;;;;;;;2.93;2.63;;;;;;;;;;5046922;28;20233;-72
2022/05/19 06:43:59;;;;;;;3.17;2.97;;;;;;;;;;5038549;28;20214;-73
2022/05/19 06:46:24;;;;;;;3.03;2.83;;;;;;;;;;5043609;28;20256;-73
2022/05/19 06:48:49;;;;;;;5.20;2.40;;;;;;;;;;5049887;28;20242;-73
2022/05/19 06:51:15;;;;;;;2.60;2.40;;;;;;;;;;5045780;28;20190;-73
2022/05/19 06:53:41;;;;;;;2.53;2.33;;;;;;;;;;5047683;28;20173;-73
2022/05/19 06:56:08;;;;;;;3.10;2.87;;;;;;;;;;5045604;28;20196;-72
2022/05/19 07:37:11;;;;;;;3.30;3.00;;;;;;;;;;4909507;28;20341;-74
2022/05/19 07:39:36;;;;;;;2.87;2.63;;;;;;;;;;4928707;29;20189;-74
2022/05/19 07:42:02;;;;;;;5.50;5.00;;;;;;;;;;4926546;29;20193;-74
2022/05/19 07:44:28;;;;;;;2.90;2.40;;;;;;;;;;4916223;29;20189;-75
2022/05/19 07:46:54;;;;;;;2.87;2.67;;;;;;;;;;4932393;29;20194;-74
2022/05/19 07:49:19;;;;;;;3.50;2.80;;;;;;;;;;4936794;29;20208;-75
2022/05/19 07:51:47;;;;;;;4.63;2.60;;;;;;;;;;4930724;29;20182;-74
2022/05/19 07:54:14;;;;;;;4.00;2.65;;;;;;;;;;4933422;29;20186;-74
2022/05/19 07:56:42;;;;;;;3.10;2.53;;;;;;;;;;4929980;29;20179;-74
2022/05/19 07:59:08;;;;;;;2.80;2.50;;;;;;;;;;4927580;29;20182;-74
2022/05/19 08:01:33;;;;;;;3.03;2.72;;;;;;;;;;4933983;29;20185;-74
2022/05/19 08:03:58;;;;;;;5.17;3.23;;;;;;;;;;4929243;29;20189;-75
2022/05/19 08:06:24;;;;;;;3.20;2.90;;;;;;;;;;4921896;29;20245;-75
2022/05/19 08:08:49;;;;;;;3.17;2.85;;;;;;;;;;4911062;29;20283;-74
2022/05/19 08:11:14;;;;;;;3.10;2.60;;;;;;;;;;4931805;29;20178;-74
2022/05/19 08:16:23;;;;;;;3.15;2.85;;;;;;;;;;4929755;29;20181;-74
2022/05/19 08:18:49;;;;;;;3.10;2.80;;;;;;;;;;4926961;29;20186;-75
2022/05/19 08:21:15;;;;;;;2.87;2.67;;;;;;;;;;4936965;29;20182;-74
2022/05/19 08:23:42;;;;;;;3.25;2.60;;;;;;;;;;4939627;29;20193;-74
2022/05/19 08:26:08;;;;;;;3.65;3.13;;;;;;;;;;4934919;29;20268;-74
2022/05/19 08:28:34;;;;;;;3.67;2.80;;;;;;;;;;4942755;29;20202;-74
2022/05/19 08:31:01;;;;;;;5.00;3.05;;;;;;;;;;4934053;29;20184;-75
2022/05/19 08:33:27;;;;;;;5.32;3.45;;;;;;;;;;4932409;29;20178;-74
2022/05/19 08:35:53;;;;;;;3.90;2.65;;;;;;;;;;4927709;29;20265;-74
2022/05/19 08:38:18;;;;;;;4.15;2.83;;;;;;;;;;4932979;29;20186;-74
2022/05/19 08:40:51;;;;;;;3.28;2.97;;;;;;;;;;4935036;29;20178;-74
2022/05/19 08:43:18;;;;;;;4.45;3.10;;;;;;;;;;4935609;29;20323;-74
2022/05/19 08:45:45;;;;;;;3.22;2.70;;;;;;;;;;4935541;29;20182;-74
2022/05/19 08:48:13;;;;;;;3.60;2.85;;;;;;;;;;4940447;28;20293;-74
2022/05/19 08:50:48;;;;;;;4.55;2.97;;;;;;;;;;4936668;29;20179;-74
2022/05/19 08:53:13;;;;;;;3.22;2.95;;;;;;;;;;4934194;29;20264;-74
2022/05/19 08:55:44;;;;;;;4.25;2.92;;;;;;;;;;4939076;29;20270;-74
2022/05/19 08:58:18;;;;;;;3.45;3.10;;;;;;;;;;4946791;28;20225;-75
2022/05/19 09:00:46;;;;;;;6.82;3.05;;;;;;;;;;4927341;29;20183;-74
2022/05/19 09:03:20;;;;;;;4.15;2.78;;;;;;;;;;4937611;29;20196;-75
2022/05/19 09:05:54;;;;;;;3.03;2.72;;;;;;;;;;4936924;29;20175;-75
2022/05/19 09:08:22;;;;;;;3.10;2.55;;;;;;;;;;4931351;29;20205;-74
2022/05/19 09:10:55;;;;;;;3.80;2.70;;;;;;;;;;4949269;28;20250;-74
2022/05/19 09:13:26;;;;;;;3.40;3.10;;;;;;;;;;4935183;29;20192;-74
2022/05/19 09:15:52;;;;;;;4.55;3.00;;;;;;;;;;4928909;29;20182;-74
2022/05/19 09:18:20;;;;;;;4.13;3.08;;;;;;;;;;4928828;29;20189;-74
2022/05/19 09:20:50;;;;;;;5.30;3.05;;;;;;;;;;4933109;29;20174;-74
2022/05/19 09:23:15;;;;;;;4.45;3.40;;;;;;;;;;4930615;29;20179;-74
2022/05/19 09:25:44;;;;;;;3.60;2.90;;;;;;;;;;4933722;29;20409;-74
2022/05/19 09:28:11;;;;;;;4.53;3.65;;;;;;;;;;4932087;29;20273;-74
2022/05/19 09:30:41;;;;;;;3.13;2.90;;;;;;;;;;4929585;29;20174;-74
2022/05/19 09:33:08;;;;;;;8.00;3.28;;;;;;;;;;4929220;29;20196;-74
2022/05/19 09:35:38;;;;;;;3.83;3.15;;;;;;;;;;4934147;29;20218;-74
2022/05/19 09:38:27;;;;;;;3.65;3.03;;;;;;;;;;4932300;29;20253;-74
2022/05/19 09:40:56;;;;;;;4.03;3.28;;;;;;;;;;4917481;29;20183;-74
2022/05/19 09:43:33;;;;;;;5.78;3.10;;;;;;;;;;4951365;28;20186;-74
2022/05/19 09:46:16;;;;;;;4.60;3.10;;;;;;;;;;4934060;29;20222;-74
2022/05/19 09:48:45;;;;;;;5.22;3.40;;;;;;;;;;4933082;29;20213;-75
2022/05/19 09:51:14;;;;;;;6.45;3.47;;;;;;;;;;4928736;29;20276;-74
2022/05/19 09:53:47;;;;;;;4.68;3.70;;;;;;;;;;4939509;29;20174;-74
2022/05/19 09:56:14;;;;;;;5.85;3.25;;;;;;;;;;4937286;29;20212;-74
2022/05/19 09:58:42;;;;;;;5.00;3.25;;;;;;;;;;4944731;28;20179;-74
2022/05/19 10:01:15;;;;;;;4.18;3.30;;;;;;;;;;4943610;28;20212;-74
2022/05/19 10:03:43;;;;;;;3.42;3.15;;;;;;;;;;4928440;29;20217;-75
2022/05/19 10:06:15;;;;;;;4.40;3.42;;;;;;;;;;4930614;29;20403;-74
2022/05/19 10:08:42;;;;;;;3.83;3.20;;;;;;;;;;4928263;29;20206;-74
2022/05/19 10:11:21;;;;;;;6.38;3.28;;;;;;;;;;4930511;28;20186;-74
2022/05/19 10:13:53;;;;;;;6.32;3.35;;;;;;;;;;4930524;29;20184;-75
2022/05/19 10:16:22;;;;;;;4.50;3.75;;;;;;;;;;4925946;29;20187;-74
2022/05/19 10:19:05;;;;;;;4.78;3.40;;;;;;;;;;4933280;29;20187;-74
2022/05/19 10:21:47;;;;;;;3.60;3.30;;;;;;;;;;4932228;29;20214;-74
2022/05/19 10:24:21;;;;;;;5.05;3.50;;;;;;;;;;4946814;28;20197;-74
2022/05/19 10:26:50;;;;;;;4.80;3.22;;;;;;;;;;4935242;29;20186;-74
2022/05/19 10:32:12;;;;;;;5.18;3.60;;;;;;;;;;4935330;29;20234;-74
2022/05/19 10:34:37;;;;;;;4.22;3.40;;;;;;;;;;4932098;29;20198;-74
2022/05/19 10:37:08;;;;;;;5.07;3.10;;;;;;;;;;4937732;29;20225;-74
2022/05/19 10:39:55;;;;;;;4.40;3.47;;;;;;;;;;4948444;28;20179;-74
2022/05/19 10:42:27;;;;;;;3.70;3.40;;;;;;;;;;4944300;28;20206;-74
2022/05/19 10:44:55;;;;;;;3.33;2.97;;;;;;;;;;4949396;28;21833;-74
2022/05/19 10:47:21;;;;;;;3.90;3.60;;;;;;;;;;4946243;28;20288;-74
2022/05/19 10:49:49;;;;;;;3.67;3.25;;;;;;;;;;4950861;28;20258;-74
2022/05/19 10:52:33;;;;;;;3.72;3.33;;;;;;;;;;4950649;28;20195;-74
2022/05/19 10:55:01;;;;;;;3.95;3.35;;;;;;;;;;4936701;29;20182;-74
2022/05/19 10:57:51;;;;;;;3.63;3.33;;;;;;;;;;4952840;28;20435;-74
2022/05/19 11:00:26;;;;;;;3.45;3.15;;;;;;;;;;4951893;28;20268;-75
2022/05/19 11:03:01;;;;;;;4.93;3.45;;;;;;;;;;4935913;29;20180;-75
2022/05/19 11:05:33;;;;;;;6.65;3.60;;;;;;;;;;4932179;29;20193;-74
2022/05/19 11:08:13;;;;;;;3.92;3.55;;;;;;;;;;4950898;28;20229;-74
2022/05/19 11:10:58;;;;;;;3.30;3.00;;;;;;;;;;4945641;28;20189;-74
2022/05/19 11:13:24;;;;;;;5.50;3.20;;;;;;;;;;4950442;28;20213;-74
2022/05/19 11:15:52;;;;;;;3.30;3.03;;;;;;;;;;4948160;28;20212;-75
2022/05/19 11:18:20;;;;;;;6.20;3.70;;;;;;;;;;4936437;29;20436;-74
2022/05/19 11:21:04;;;;;;;3.75;3.20;;;;;;;;;;4931587;29;20190;-74
2022/05/19 11:23:48;;;;;;;3.60;2.92;;;;;;;;;;4931386;29;20178;-74
2022/05/19 11:26:26;;;;;;;4.30;3.28;;;;;;;;;;4930460;29;20186;-74
2022/05/19 11:28:51;;;;;;;4.13;3.50;;;;;;;;;;4945162;28;20333;-74
2022/05/19 11:31:30;;;;;;;6.07;3.57;;;;;;;;;;4949455;28;20189;-74
2022/05/19 11:33:57;;;;;;;3.65;3.33;;;;;;;;;;4931990;29;20420;-74
2022/05/19 11:36:36;;;;;;;3.30;2.97;;;;;;;;;;4930451;29;20234;-73
2022/05/19 11:39:04;;;;;;;4.03;3.30;;;;;;;;;;4931024;29;20190;-74
2022/05/19 11:41:33;;;;;;;3.88;3.40;;;;;;;;;;4943531;28;20308;-75
2022/05/19 11:43:58;;;;;;;5.40;3.03;;;;;;;;;;4950281;28;20186;-74
2022/05/19 11:46:28;;;;;;;3.47;3.15;;;;;;;;;;4948655;28;20196;-75
2022/05/19 11:55:13;;;;;;;4.32;3.55;;;;;;;;;;4931165;29;20216;-75
2022/05/19 11:57:38;;;;;;;3.97;3.03;;;;;;;;;;4933530;29;20174;-74
2022/05/19 12:00:04;;;;;;;3.38;3.08;;;;;;;;;;4933411;29;20249;-74
2022/05/19 12:02:35;;;;;;;3.83;3.50;;;;;;;;;;4930325;29;20189;-74
2022/05/19 12:05:10;;;;;;;3.85;3.33;;;;;;;;;;4928115;29;20224;-74
2022/05/19 12:07:50;;;;;;;4.38;3.20;;;;;;;;;;4932670;29;20185;-74
2022/05/19 12:10:18;;;;;;;3.50;3.15;;;;;;;;;;4926040;29;20282;-74
2022/05/19 12:12:45;;;;;;;3.63;3.33;;;;;;;;;;4930183;29;20178;-74
2022/05/19 12:15:26;;;;;;;4.72;3.08;;;;;;;;;;4928166;29;20272;-74
2022/05/19 12:17:57;;;;;;;5.57;3.28;;;;;;;;;;4942609;28;20273;-75
2022/05/19 12:20:41;;;;;;;8.75;3.20;;;;;;;;;;4929287;29;20205;-74
2022/05/19 12:23:09;;;;;;;3.88;3.40;;;;;;;;;;4925682;29;20269;-74
2022/05/19 12:25:37;;;;;;;7.65;3.45;;;;;;;;;;4928241;29;20230;-74
2022/05/19 12:28:25;;;;;;;3.95;3.40;;;;;;;;;;4933211;29;20264;-74
2022/05/19 12:34:08;;;;;;;7.15;3.83;;;;;;;;;;4927529;29;20189;-74
2022/05/19 12:36:41;;;;;;;7.32;3.70;;;;;;;;;;4929122;29;20237;-74
2022/05/19 12:39:18;;;;;;;6.80;3.38;;;;;;;;;;4929196;29;20254;-74
2022/05/19 12:41:49;;;;;;;5.63;3.60;;;;;;;;;;4935819;29;20182;-74
2022/05/19 12:44:46;;;;;;;5.57;4.03;;;;;;;;;;4929249;29;20186;-74
2022/05/19 12:47:20;;;;;;;3.92;3.63;;;;;;;;;;4924357;29;20191;-75
2022/05/19 12:50:00;;;;;;;5.85;3.58;;;;;;;;;;4934116;29;20240;-74
2022/05/19 12:52:46;;;;;;;6.00;3.90;;;;;;;;;;4949549;28;20278;-74
2022/05/19 12:55:26;;;;;;;5.03;3.75;;;;;;;;;;4935745;29;20186;-74
2022/05/19 12:57:53;;;;;;;7.18;3.70;;;;;;;;;;4952650;28;20414;-74
2022/05/19 13:00:23;;;;;;;6.38;3.80;;;;;;;;;;4951433;28;20188;-74
2022/05/19 13:03:07;;;;;;;5.00;3.30;;;;;;;;;;4945551;28;20290;-74
2022/05/19 13:05:45;;;;;;;6.20;3.70;;;;;;;;;;4939440;29;20186;-75
2022/05/19 13:08:25;;;;;;;4.28;3.60;;;;;;;;;;4937326;29;20280;-74
2022/05/19 13:10:51;;;;;;;4.05;3.67;;;;;;;;;;4943145;28;20178;-74
2022/05/19 13:13:19;;;;;;;4.65;3.45;;;;;;;;;;4949775;28;20269;-74
2022/05/19 13:15:58;;;;;;;5.30;3.97;;;;;;;;;;4949396;28;20294;-74
2022/05/19 13:18:28;;;;;;;5.43;3.63;;;;;;;;;;4944639;29;20181;-74
2022/05/19 13:21:02;;;;;;;3.67;3.33;;;;;;;;;;4946989;28;20189;-74
2022/05/19 13:23:28;;;;;;;6.38;3.80;;;;;;;;;;4938906;29;20190;-74
2022/05/19 13:25:57;;;;;;;6.25;3.67;;;;;;;;;;4948489;28;20182;-74
2022/05/19 13:31:27;;;;;;;5.53;3.70;;;;;;;;;;4933826;29;20319;-74
2022/05/19 13:33:55;;;;;;;4.40;3.88;;;;;;;;;;4947766;28;20202;-74
2022/05/19 13:36:35;;;;;;;4.93;3.78;;;;;;;;;;4932329;29;20226;-74
2022/05/19 13:39:04;;;;;;;4.90;3.67;;;;;;;;;;4938232;29;20181;-74
2022/05/19 13:41:32;;;;;;;3.35;3.05;;;;;;;;;;4939218;29;20247;-74
2022/05/19 13:43:57;;;;;;;4.13;3.10;;;;;;;;;;4930367;29;21973;-74
2022/05/19 13:46:22;;;;;;;4.20;3.78;;;;;;;;;;4937068;29;20186;-74
2022/05/19 13:48:52;;;;;;;5.05;4.03;;;;;;;;;;4934711;29;20205;-74
2022/05/19 13:51:17;;;;;;;6.35;3.65;;;;;;;;;;4934787;29;20217;-74
2022/05/19 13:53:45;;;;;;;3.57;3.07;;;;;;;;;;4934593;29;20206;-74
2022/05/19 13:56:10;;;;;;;4.47;3.35;;;;;;;;;;4937422;29;20451;-74
2022/05/19 13:58:36;;;;;;;4.57;3.45;;;;;;;;;;4931908;29;20221;-74
2022/05/19 14:01:02;;;;;;;3.67;3.38;;;;;;;;;;4934473;29;20182;-74
2022/05/19 14:03:27;;;;;;;7.20;3.38;;;;;;;;;;4932191;29;20179;-74
2022/05/19 14:05:53;;;;;;;5.00;3.85;;;;;;;;;;4933595;29;20215;-74
2022/05/19 14:08:20;;;;;;;4.03;3.60;;;;;;;;;;4940236;29;20201;-74
2022/05/19 14:10:56;;;;;;;4.90;4.15;;;;;;;;;;4931300;29;20213;-74
2022/05/19 14:13:22;;;;;;;4.38;3.78;;;;;;;;;;4935689;29;20304;-74
2022/05/19 14:15:54;;;;;;;5.47;3.60;;;;;;;;;;4934688;29;20185;-73
2022/05/19 14:18:22;;;;;;;3.88;3.50;;;;;;;;;;4933335;29;20193;-74
2022/05/19 14:20:52;;;;;;;4.60;3.53;;;;;;;;;;4935327;28;20182;-74
2022/05/19 14:23:19;;;;;;;4.22;3.13;;;;;;;;;;4935433;29;20190;-74
2022/05/19 14:25:46;;;;;;;5.43;3.60;;;;;;;;;;4939574;29;20184;-74
2022/05/19 14:28:19;;;;;;;4.38;3.40;;;;;;;;;;4931625;29;20210;-74
2022/05/19 14:30:45;;;;;;;5.03;3.75;;;;;;;;;;4939012;29;20174;-74
2022/05/19 14:33:16;;;;;;;4.38;3.72;;;;;;;;;;4933184;29;20261;-74
2022/05/19 14:35:41;;;;;;;4.82;3.30;;;;;;;;;;4937653;29;20241;-74
2022/05/19 14:38:13;;;;;;;4.10;3.70;;;;;;;;;;4935420;29;20191;-74
2022/05/19 14:43:27;;;;;;;4.57;3.53;;;;;;;;;;4928761;29;20213;-74
2022/05/19 14:45:57;;;;;;;6.75;4.25;;;;;;;;;;4941261;29;20186;-74
2022/05/19 14:48:38;;;;;;;4.18;3.83;;;;;;;;;;4933429;29;20220;-74
2022/05/19 14:51:16;;;;;;;4.18;3.70;;;;;;;;;;4936170;29;20183;-74
2022/05/19 14:53:43;;;;;;;4.32;3.45;;;;;;;;;;4936003;29;20204;-74
2022/05/19 14:56:16;;;;;;;7.00;4.45;;;;;;;;;;4943526;29;20186;-74
2022/05/19 14:58:48;;;;;;;6.22;4.70;;;;;;;;;;4931967;28;20200;-74
2022/05/19 15:01:13;;;;;;;5.63;4.38;;;;;;;;;;4932087;29;20189;-75
2022/05/19 15:03:38;;;;;;;5.85;4.00;;;;;;;;;;4932664;29;20274;-74
2022/05/19 15:06:03;;;;;;;5.72;4.40;;;;;;;;;;4936366;29;20264;-74
2022/05/19 15:08:29;;;;;;;6.85;3.88;;;;;;;;;;4950000;28;20201;-74
2022/05/19 15:10:54;;;;;;;4.97;4.05;;;;;;;;;;4932914;29;20181;-74
2022/05/19 15:13:20;;;;;;;4.68;3.95;;;;;;;;;;4933395;29;20182;-74
2022/05/19 15:15:46;;;;;;;5.68;3.67;;;;;;;;;;4944732;28;20267;-74
2022/05/19 15:18:11;;;;;;;6.95;3.90;;;;;;;;;;4931108;29;20265;-74
2022/05/19 15:20:38;;;;;;;4.85;3.50;;;;;;;;;;4934081;28;20186;-74
2022/05/19 15:23:03;;;;;;;4.97;3.80;;;;;;;;;;4929222;29;20249;-74
2022/05/19 15:25:30;;;;;;;5.10;3.92;;;;;;;;;;4937809;29;20226;-74
2022/05/19 15:27:56;;;;;;;6.22;3.85;;;;;;;;;;4927878;29;20178;-74
2022/05/19 15:30:23;;;;;;;7.97;3.47;;;;;;;;;;4930461;28;20178;-74
2022/05/19 15:32:48;;;;;;;4.63;3.78;;;;;;;;;;4942454;28;20194;-74
2022/05/19 15:35:14;;;;;;;9.40;4.25;;;;;;;;;;4937796;28;20222;-74
2022/05/19 15:37:40;;;;;;;5.68;3.95;;;;;;;;;;4953058;28;20178;-74
2022/05/19 15:40:05;;;;;;;7.18;4.07;;;;;;;;;;4946397;28;20325;-74
2022/05/19 15:42:31;;;;;;;5.95;3.90;;;;;;;;;;4931168;29;20206;-74
2022/05/19 15:44:56;;;;;;;5.20;4.13;;;;;;;;;;4929725;29;20190;-74
2022/05/19 15:47:23;;;;;;;4.95;4.20;;;;;;;;;;4937477;29;20196;-74
2022/05/19 15:49:48;;;;;;;4.20;3.90;;;;;;;;;;4934823;29;20202;-74
2022/05/19 15:52:15;;;;;;;5.53;4.13;;;;;;;;;;4931051;29;20189;-74
2022/05/19 15:54:41;;;;;;;5.45;4.25;;;;;;;;;;4939889;29;20185;-74